Time;durP1;ratioP1;P1;durP2;ratioP2;P2;SDS_P1;SDS_P2;PMS_P1;PMS_P2;Temp;Humidity;BMP_temperature;BMP_pressure;BME280_temperature;BME280_humidity;BME280_pressure;Samples;Min_cycle;Max_cycle;Signal;HPM_P1;HPM_P2
2022/08/16 00:00:26;;;;;;;0.30;0.30;;;16.20;99.90;;;;;;5054009;28;20270;-75
2022/08/16 00:02:53;;;;;;;0.40;0.40;;;16.20;99.90;;;;;;5061188;28;20281;-75
2022/08/16 00:05:21;;;;;;;0.40;0.40;;;16.20;99.90;;;;;;5054661;28;20179;-75
2022/08/16 00:07:47;;;;;;;0.40;0.40;;;16.20;99.90;;;;;;5063695;28;20578;-75
2022/08/16 00:10:14;;;;;;;0.40;0.40;;;16.10;99.90;;;;;;5073765;28;20714;-76
2022/08/16 00:12:41;;;;;;;0.40;0.40;;;16.00;99.90;;;;;;5073799;28;20209;-75
2022/08/16 00:15:12;;;;;;;0.50;0.50;;;16.00;99.90;;;;;;5057417;28;20218;-76
2022/08/16 00:17:38;;;;;;;0.40;0.40;;;16.00;99.90;;;;;;5051034;28;20170;-75
2022/08/16 00:20:08;;;;;;;0.33;0.33;;;16.00;99.90;;;;;;5073266;28;20185;-76
2022/08/16 00:22:35;;;;;;;0.50;0.50;;;16.00;99.90;;;;;;5061932;28;20664;-75
2022/08/16 00:25:01;;;;;;;0.30;0.30;;;15.90;99.90;;;;;;5068935;28;20311;-76
2022/08/16 00:27:27;;;;;;;0.40;0.40;;;15.80;99.90;;;;;;5061261;28;20257;-75
2022/08/16 00:29:53;;;;;;;0.40;0.40;;;15.90;99.90;;;;;;5062866;28;20183;-75
2022/08/16 00:32:19;;;;;;;0.43;0.43;;;15.80;99.90;;;;;;5065739;28;20220;-76
2022/08/16 00:34:45;;;;;;;0.40;0.40;;;15.70;99.90;;;;;;5072050;28;20748;-76
2022/08/16 00:37:11;;;;;;;0.40;0.40;;;15.50;99.90;;;;;;5069078;28;20187;-75
2022/08/16 00:39:36;;;;;;;0.40;0.40;;;15.40;99.90;;;;;;5053473;28;20182;-76
2022/08/16 00:42:02;;;;;;;0.37;0.37;;;15.40;99.90;;;;;;5053776;28;20179;-76
2022/08/16 00:44:28;;;;;;;0.40;0.40;;;15.50;99.90;;;;;;5067612;28;20211;-76
2022/08/16 00:47:00;;;;;;;0.40;0.40;;;15.50;99.90;;;;;;5071260;28;20632;-75
2022/08/16 00:49:26;;;;;;;0.50;0.50;;;15.50;99.90;;;;;;5058001;28;20635;-76
2022/08/16 00:51:52;;;;;;;0.50;0.50;;;15.50;99.90;;;;;;5067597;28;20194;-75
2022/08/16 00:54:19;;;;;;;0.40;0.40;;;15.40;99.90;;;;;;5072864;28;20272;-75
2022/08/16 00:56:49;;;;;;;0.40;0.40;;;15.40;99.90;;;;;;5058341;28;20189;-75
2022/08/16 00:59:16;;;;;;;0.40;0.40;;;15.40;99.90;;;;;;5072397;28;20218;-75
2022/08/16 01:01:44;;;;;;;0.40;0.40;;;15.40;99.90;;;;;;5071627;28;20178;-76
2022/08/16 01:04:10;;;;;;;0.40;0.40;;;15.40;99.90;;;;;;5064687;28;20195;-75
2022/08/16 01:06:36;;;;;;;0.40;0.40;;;15.50;99.90;;;;;;5053158;28;20655;-75
2022/08/16 01:09:05;;;;;;;0.40;0.40;;;15.40;99.90;;;;;;5056006;28;20190;-75
2022/08/16 01:11:32;;;;;;;0.40;0.40;;;15.40;99.90;;;;;;5058236;28;20262;-75
2022/08/16 01:14:12;;;;;;;0.33;0.33;;;15.40;99.90;;;;;;5072686;28;20748;-75
2022/08/16 01:16:39;;;;;;;0.40;0.40;;;15.40;99.90;;;;;;5072442;28;20269;-75
2022/08/16 01:19:18;;;;;;;0.50;0.50;;;15.40;99.90;;;;;;5053105;28;20190;-75
2022/08/16 01:21:59;;;;;;;0.40;0.40;;;15.20;99.90;;;;;;5052984;28;20182;-75
2022/08/16 01:24:38;;;;;;;0.40;0.40;;;15.20;99.90;;;;;;5053329;28;20198;-75
2022/08/16 01:27:14;;;;;;;0.40;0.40;;;15.20;99.90;;;;;;5044220;28;20179;-75
2022/08/16 01:29:56;;;;;;;0.50;0.50;;;15.20;99.90;;;;;;5072129;28;20202;-75
2022/08/16 01:32:21;;;;;;;0.40;0.40;;;15.30;99.90;;;;;;5070819;28;20179;-75
2022/08/16 01:34:47;;;;;;;0.40;0.40;;;15.30;99.90;;;;;;5066946;28;20280;-75
2022/08/16 01:37:14;;;;;;;0.37;0.37;;;15.20;99.90;;;;;;5067469;28;20261;-76
2022/08/16 01:39:40;;;;;;;0.40;0.40;;;15.20;99.90;;;;;;5070308;28;20181;-76
2022/08/16 01:42:08;;;;;;;0.40;0.40;;;15.20;99.90;;;;;;5066569;28;20178;-75
2022/08/16 01:44:34;;;;;;;0.40;0.40;;;15.30;99.90;;;;;;5065194;28;20596;-76
2022/08/16 01:47:00;;;;;;;0.50;0.50;;;15.30;99.90;;;;;;5067519;28;20566;-75
2022/08/16 01:49:32;;;;;;;0.40;0.40;;;15.40;99.90;;;;;;5071209;28;20182;-76
2022/08/16 01:52:01;;;;;;;0.47;0.47;;;15.30;99.90;;;;;;5072091;28;20265;-76
2022/08/16 01:54:27;;;;;;;0.37;0.37;;;15.20;99.90;;;;;;5067467;28;20207;-75
2022/08/16 01:56:53;;;;;;;0.30;0.30;;;15.20;99.90;;;;;;5065753;28;20181;-76
2022/08/16 01:59:19;;;;;;;0.40;0.40;;;15.30;99.90;;;;;;5071485;28;20261;-75
2022/08/16 02:01:49;;;;;;;0.33;0.33;;;15.20;99.90;;;;;;5072053;28;20224;-75
2022/08/16 02:04:15;;;;;;;0.30;0.30;;;15.10;99.90;;;;;;5068733;28;20290;-76
2022/08/16 02:06:41;;;;;;;0.40;0.40;;;15.00;99.90;;;;;;5059296;28;20177;-76
2022/08/16 02:09:09;;;;;;;0.40;0.40;;;14.90;99.90;;;;;;5065299;28;20674;-76
2022/08/16 02:11:36;;;;;;;0.37;0.37;;;15.00;99.90;;;;;;5068567;28;20171;-76
2022/08/16 02:14:03;;;;;;;0.40;0.40;;;15.10;99.90;;;;;;5071369;28;20283;-76
2022/08/16 02:16:29;;;;;;;0.30;0.30;;;15.20;99.90;;;;;;5071407;28;20182;-76
2022/08/16 02:18:54;;;;;;;0.40;0.40;;;15.20;99.90;;;;;;5066437;28;20174;-77
2022/08/16 02:21:20;;;;;;;0.40;0.40;;;15.20;99.90;;;;;;5071097;28;20166;-76
2022/08/16 02:23:45;;;;;;;0.50;0.50;;;15.10;99.90;;;;;;5066756;28;20629;-76
2022/08/16 02:26:12;;;;;;;0.40;0.40;;;15.30;99.90;;;;;;5067613;28;20227;-76
2022/08/16 02:28:37;;;;;;;0.50;0.50;;;15.40;99.90;;;;;;5052041;28;20261;-76
2022/08/16 02:31:06;;;;;;;0.30;0.30;;;15.40;99.90;;;;;;5090929;22;20601;-80
2022/08/16 02:33:32;;;;;;;0.53;0.53;;;15.50;99.90;;;;;;5085314;28;20539;-79
2022/08/16 02:35:58;;;;;;;0.43;0.43;;;15.50;99.90;;;;;;5084623;28;20214;-79
2022/08/16 02:38:24;;;;;;;0.30;0.30;;;15.40;99.90;;;;;;5065443;28;20166;-80
2022/08/16 02:40:50;;;;;;;0.30;0.30;;;15.40;99.90;;;;;;5069269;28;20281;-81
2022/08/16 02:43:16;;;;;;;0.40;0.40;;;15.50;99.90;;;;;;5065648;28;20214;-80
2022/08/16 02:45:42;;;;;;;0.30;0.30;;;15.40;99.90;;;;;;5065719;28;20751;-80
2022/08/16 02:48:07;;;;;;;0.40;0.40;;;15.10;99.90;;;;;;5084276;28;20174;-78
2022/08/16 02:50:33;;;;;;;0.30;0.30;;;15.10;99.90;;;;;;5065825;28;20317;-79
2022/08/16 02:52:59;;;;;;;0.30;0.30;;;15.10;99.90;;;;;;5075327;28;20210;-79
2022/08/16 02:55:26;;;;;;;0.30;0.30;;;15.20;99.90;;;;;;5088074;28;20232;-78
2022/08/16 02:57:51;;;;;;;0.33;0.33;;;15.20;99.90;;;;;;5083833;28;20171;-79
2022/08/16 03:00:18;;;;;;;0.43;0.43;;;15.20;99.90;;;;;;5085856;28;20205;-78
2022/08/16 03:02:44;;;;;;;0.40;0.40;;;15.20;99.90;;;;;;5077679;28;20195;-79
2022/08/16 03:05:12;;;;;;;0.40;0.40;;;15.00;99.90;;;;;;5068480;28;20171;-78
2022/08/16 03:07:39;;;;;;;0.30;0.30;;;15.30;99.90;;;;;;5069017;28;20175;-79
2022/08/16 03:10:08;;;;;;;0.30;0.30;;;15.20;99.90;;;;;;5085437;28;20187;-79
2022/08/16 03:12:33;;;;;;;0.30;0.30;;;15.40;99.90;;;;;;5076185;28;20194;-80
2022/08/16 03:14:59;;;;;;;0.40;0.40;;;15.20;99.90;;;;;;5077494;28;20245;-80
2022/08/16 03:17:25;;;;;;;0.40;0.40;;;15.10;99.90;;;;;;5068557;28;20175;-79
2022/08/16 03:19:52;;;;;;;0.40;0.40;;;15.00;99.90;;;;;;5071671;28;20198;-80
2022/08/16 03:22:19;;;;;;;0.30;0.30;;;14.90;99.90;;;;;;5083168;28;20177;-78
2022/08/16 03:24:44;;;;;;;0.50;0.50;;;14.90;99.90;;;;;;5066485;28;20194;-79
2022/08/16 03:27:10;;;;;;;0.40;0.40;;;15.00;99.90;;;;;;5074625;28;20716;-78
2022/08/16 03:29:36;;;;;;;0.40;0.40;;;15.10;99.90;;;;;;5068852;28;20194;-78
2022/08/16 03:32:02;;;;;;;0.40;0.40;;;15.10;99.90;;;;;;5081831;28;20179;-79
2022/08/16 03:34:29;;;;;;;0.30;0.30;;;15.10;99.90;;;;;;5084282;28;20738;-78
2022/08/16 03:36:56;;;;;;;0.40;0.40;;;15.20;99.90;;;;;;5083322;28;20181;-78
2022/08/16 03:39:22;;;;;;;0.40;0.40;;;15.10;99.90;;;;;;5069452;28;20258;-78
2022/08/16 03:41:49;;;;;;;0.60;0.60;;;15.20;99.90;;;;;;5080408;28;20179;-78
2022/08/16 03:44:15;;;;;;;0.40;0.40;;;15.20;99.90;;;;;;5065545;28;20203;-78
2022/08/16 03:46:42;;;;;;;0.33;0.33;;;15.30;99.90;;;;;;5066018;28;20209;-78
2022/08/16 03:49:10;;;;;;;0.30;0.30;;;15.40;99.90;;;;;;5065765;28;20183;-77
2022/08/16 03:51:35;;;;;;;0.50;0.50;;;15.40;99.90;;;;;;5081049;28;20182;-78
2022/08/16 03:54:01;;;;;;;0.50;0.50;;;15.40;99.90;;;;;;5079565;28;20343;-78
2022/08/16 03:56:27;;;;;;;0.40;0.40;;;15.40;99.90;;;;;;5080065;28;20326;-77
2022/08/16 03:58:55;;;;;;;0.50;0.50;;;15.30;99.90;;;;;;5080144;28;20267;-77
2022/08/16 04:01:22;;;;;;;0.40;0.40;;;15.10;99.90;;;;;;5078240;28;20190;-78
2022/08/16 04:03:48;;;;;;;0.43;0.43;;;15.10;99.90;;;;;;5072415;28;20206;-78
2022/08/16 04:06:14;;;;;;;0.40;0.40;;;15.10;99.90;;;;;;5069534;28;20179;-78
2022/08/16 04:08:39;;;;;;;0.40;0.40;;;15.00;99.90;;;;;;5069606;28;20179;-77
2022/08/16 04:11:05;;;;;;;0.40;0.40;;;15.00;99.90;;;;;;5069717;28;20190;-78
2022/08/16 04:13:31;;;;;;;0.50;0.50;;;15.00;99.90;;;;;;5084037;28;20199;-77
2022/08/16 04:15:58;;;;;;;0.40;0.40;;;14.90;99.90;;;;;;5076388;28;20275;-78
2022/08/16 04:18:25;;;;;;;0.37;0.37;;;15.00;99.90;;;;;;5071289;28;20178;-82
2022/08/16 04:20:51;;;;;;;0.40;0.40;;;14.90;99.90;;;;;;5062708;28;20186;-79
2022/08/16 04:23:16;;;;;;;0.30;0.30;;;14.80;99.90;;;;;;5071764;28;20203;-78
2022/08/16 04:25:42;;;;;;;0.40;0.40;;;14.80;99.90;;;;;;5089435;28;20174;-79
2022/08/16 04:28:08;;;;;;;0.43;0.43;;;14.80;99.90;;;;;;5092682;28;20198;-78
2022/08/16 04:30:33;;;;;;;0.40;0.40;;;14.80;99.90;;;;;;5093233;28;20256;-79
2022/08/16 04:32:59;;;;;;;0.50;0.50;;;14.90;99.90;;;;;;5082086;28;20233;-79
2022/08/16 04:35:25;;;;;;;0.37;0.37;;;14.90;99.90;;;;;;5072465;28;20199;-80
2022/08/16 04:37:51;;;;;;;0.40;0.40;;;14.70;99.90;;;;;;5092206;28;20253;-78
2022/08/16 04:40:19;;;;;;;0.40;0.40;;;14.70;99.90;;;;;;5083308;28;20168;-83
2022/08/16 04:42:45;;;;;;;0.40;0.40;;;15.00;99.90;;;;;;5071136;28;20193;-80
2022/08/16 04:45:12;;;;;;;0.30;0.30;;;15.20;99.90;;;;;;5076223;28;20237;-80
2022/08/16 04:47:39;;;;;;;0.37;0.37;;;15.40;99.90;;;;;;5066746;28;20184;-82
2022/08/16 04:50:16;;;;;;;0.50;0.50;;;15.60;99.90;;;;;;5075661;28;20767;-81
2022/08/16 04:52:45;;;;;;;0.40;0.40;;;15.60;99.90;;;;;;5069527;28;20194;-79
2022/08/16 04:55:17;;;;;;;0.30;0.30;;;15.70;99.90;;;;;;5080512;28;20217;-80
2022/08/16 04:57:44;;;;;;;0.50;0.50;;;15.80;99.90;;;;;;5080628;28;20202;-80
2022/08/16 05:00:14;;;;;;;0.37;0.37;;;15.90;99.90;;;;;;5084108;28;20270;-80
2022/08/16 05:02:40;;;;;;;0.40;0.40;;;15.90;99.90;;;;;;5069417;28;20290;-79
2022/08/16 05:05:08;;;;;;;0.40;0.40;;;15.80;99.90;;;;;;5082004;28;20186;-79
2022/08/16 05:07:33;;;;;;;0.30;0.30;;;16.20;99.90;;;;;;5080981;28;20179;-79
2022/08/16 05:09:59;;;;;;;0.30;0.30;;;16.10;99.90;;;;;;5078748;28;20189;-80
2022/08/16 05:12:25;;;;;;;0.40;0.40;;;16.20;99.90;;;;;;5080970;28;20190;-80
2022/08/16 05:14:50;;;;;;;0.30;0.30;;;16.20;99.90;;;;;;5079039;28;20198;-79
2022/08/16 05:17:16;;;;;;;0.30;0.30;;;16.20;99.90;;;;;;5081280;28;20189;-78
2022/08/16 05:19:42;;;;;;;0.30;0.30;;;16.30;99.90;;;;;;5069866;28;20564;-80
2022/08/16 05:22:07;;;;;;;0.40;0.40;;;16.20;99.90;;;;;;5086210;28;20218;-80
2022/08/16 05:24:33;;;;;;;0.40;0.40;;;16.30;99.90;;;;;;5088888;28;20179;-81
2022/08/16 05:26:58;;;;;;;0.30;0.30;;;16.30;99.90;;;;;;5077035;28;20194;-80
2022/08/16 05:29:24;;;;;;;0.40;0.40;;;16.40;99.90;;;;;;5082195;28;20186;-79
2022/08/16 05:31:50;;;;;;;0.33;0.33;;;16.40;99.90;;;;;;5088096;28;20178;-80
2022/08/16 05:34:18;;;;;;;0.40;0.40;;;16.20;99.90;;;;;;5088522;28;20285;-78
2022/08/16 05:36:44;;;;;;;0.33;0.33;;;16.00;99.90;;;;;;5081726;28;20206;-80
2022/08/16 05:39:09;;;;;;;0.40;0.40;;;15.90;99.90;;;;;;5081124;28;20807;-79
2022/08/16 05:41:36;;;;;;;0.50;0.50;;;15.90;99.90;;;;;;5083740;28;20178;-80
2022/08/16 05:44:01;;;;;;;0.57;0.57;;;16.10;99.90;;;;;;5076310;28;20199;-80
2022/08/16 05:46:27;;;;;;;0.30;0.30;;;16.20;99.90;;;;;;5075371;28;20173;-80
2022/08/16 05:48:52;;;;;;;0.40;0.40;;;16.30;99.90;;;;;;5076886;28;20266;-80
2022/08/16 05:51:18;;;;;;;0.40;0.40;;;16.30;99.90;;;;;;5074360;28;20190;-79
2022/08/16 05:53:44;;;;;;;0.40;0.40;;;16.30;99.90;;;;;;5078740;28;20206;-79
2022/08/16 05:56:10;;;;;;;0.50;0.50;;;16.30;99.90;;;;;;5077309;28;20218;-79
2022/08/16 05:58:36;;;;;;;0.30;0.30;;;16.30;99.90;;;;;;5077059;28;20754;-79
2022/08/16 06:01:02;;;;;;;0.30;0.30;;;16.30;99.90;;;;;;5071718;28;20183;-78
2022/08/16 06:03:28;;;;;;;0.40;0.40;;;16.50;99.90;;;;;;5066314;28;20194;-78
2022/08/16 06:05:53;;;;;;;0.40;0.40;;;16.40;99.90;;;;;;5073118;28;20524;-78
2022/08/16 06:08:19;;;;;;;0.50;0.50;;;16.60;99.90;;;;;;5064280;28;20195;-79
2022/08/16 06:10:44;;;;;;;0.40;0.40;;;16.90;99.90;;;;;;5066289;28;20197;-78
2022/08/16 06:13:10;;;;;;;0.30;0.30;;;17.00;99.90;;;;;;5067845;28;20210;-77
2022/08/16 06:15:35;;;;;;;0.40;0.40;;;17.40;99.90;;;;;;5070772;28;20298;-76
2022/08/16 06:18:02;;;;;;;0.40;0.40;;;17.40;99.90;;;;;;5074594;28;20281;-77
2022/08/16 06:20:28;;;;;;;0.37;0.37;;;17.40;99.90;;;;;;5061627;28;20218;-77
2022/08/16 06:22:55;;;;;;;0.40;0.40;;;17.80;99.90;;;;;;5069314;28;20199;-77
2022/08/16 06:25:22;;;;;;;0.50;0.50;;;18.00;99.90;;;;;;5064510;28;20186;-76
2022/08/16 06:27:47;;;;;;;0.20;0.20;;;18.10;99.90;;;;;;5063666;28;20178;-77
2022/08/16 06:30:13;;;;;;;0.40;0.40;;;18.10;99.90;;;;;;5069208;28;20186;-77
2022/08/16 06:32:39;;;;;;;0.40;0.40;;;18.10;99.90;;;;;;5052856;28;20199;-76
2022/08/16 06:35:05;;;;;;;0.33;0.33;;;18.00;99.90;;;;;;5058550;28;20670;-77
2022/08/16 06:37:31;;;;;;;0.40;0.40;;;18.20;99.90;;;;;;5071241;28;20178;-77
2022/08/16 06:39:57;;;;;;;0.37;0.37;;;18.30;99.90;;;;;;5057259;28;20665;-77
2022/08/16 06:42:22;;;;;;;0.30;0.30;;;18.40;99.90;;;;;;5068471;28;20179;-77
2022/08/16 06:44:48;;;;;;;0.33;0.33;;;18.60;99.90;;;;;;5065706;28;20178;-78
2022/08/16 06:47:14;;;;;;;0.30;0.30;;;18.70;66.00;;;;;;5069958;28;20274;-76
2022/08/16 06:49:40;;;;;;;0.40;0.40;;;18.90;90.80;;;;;;5055095;28;20262;-77
2022/08/16 06:52:06;;;;;;;0.30;0.30;;;19.00;43.60;;;;;;5058270;28;20197;-76
2022/08/16 06:54:33;;;;;;;0.40;0.40;;;19.00;7.60;;;;;;5071565;28;20651;-77
2022/08/16 06:56:58;;;;;;;0.30;0.30;;;19.10;28.30;;;;;;5064775;28;20191;-77
2022/08/16 06:59:24;;;;;;;0.40;0.40;;;19.30;95.40;;;;;;5060423;28;20221;-77
2022/08/16 07:01:50;;;;;;;0.30;0.30;;;19.40;1.00;;;;;;5062788;28;20239;-77
2022/08/16 07:04:16;;;;;;;0.33;0.33;;;19.60;1.00;;;;;;5058257;28;20325;-77
2022/08/16 07:06:41;;;;;;;0.20;0.20;;;19.80;1.00;;;;;;5054234;28;20262;-78
2022/08/16 07:09:07;;;;;;;0.33;0.33;;;19.80;1.00;;;;;;5051629;28;20167;-77
2022/08/16 07:11:32;;;;;;;0.40;0.40;;;19.80;1.00;;;;;;5068720;28;20549;-76
2022/08/16 07:13:58;;;;;;;0.30;0.30;;;19.90;1.00;;;;;;5060543;28;20191;-77
2022/08/16 07:16:24;;;;;;;0.30;0.30;;;20.10;1.00;;;;;;5061902;28;20210;-76
2022/08/16 07:18:51;;;;;;;0.30;0.30;;;20.50;1.00;;;;;;5059768;28;20201;-77
2022/08/16 07:21:16;;;;;;;0.30;0.30;;;20.60;1.00;;;;;;5060076;28;20179;-78
2022/08/16 07:23:45;;;;;;;0.30;0.30;;;20.60;1.00;;;;;;5058266;28;20689;-76
2022/08/16 07:26:17;;;;;;;0.30;0.30;;;20.70;99.90;;;;;;5058234;28;20257;-77
2022/08/16 07:28:43;;;;;;;0.30;0.30;;;20.70;1.00;;;;;;5063624;28;20217;-76
2022/08/16 07:31:09;;;;;;;0.30;0.30;;;20.70;99.90;;;;;;5064883;28;20191;-74
2022/08/16 07:33:36;;;;;;;0.30;0.30;;;21.00;1.00;;;;;;5070669;28;20199;-76
2022/08/16 07:36:06;;;;;;;0.30;0.30;;;21.10;99.90;;;;;;5069572;28;20206;-76
2022/08/16 07:38:32;;;;;;;0.37;0.37;;;21.30;1.00;;;;;;5056004;28;20186;-76
2022/08/16 07:40:57;;;;;;;0.30;0.30;;;21.40;99.90;;;;;;5069217;28;20187;-76
2022/08/16 07:43:23;;;;;;;0.30;0.30;;;21.70;1.00;;;;;;5058837;28;20195;-76
2022/08/16 07:45:50;;;;;;;0.20;0.20;;;21.90;1.00;;;;;;5072338;28;20183;-77
2022/08/16 07:48:16;;;;;;;0.40;0.40;;;22.40;99.90;;;;;;5074285;28;20272;-79
2022/08/16 07:50:43;;;;;;;0.27;0.27;;;22.80;99.90;;;;;;5075977;28;20205;-79
2022/08/16 07:53:08;;;;;;;0.33;0.33;;;23.70;1.00;;;;;;5084711;28;20202;-80
2022/08/16 07:55:35;;;;;;;0.30;0.30;;;24.30;99.90;;;;;;5084674;28;20286;-81
2022/08/16 07:58:01;;;;;;;0.40;0.40;;;24.80;1.00;;;;;;5082434;28;20178;-82
2022/08/16 08:00:26;;;;;;;0.33;0.33;;;24.90;1.00;;;;;;5084458;28;20183;-82
2022/08/16 08:02:52;;;;;;;0.40;0.40;;;25.60;1.00;;;;;;5082190;28;20206;-81
2022/08/16 08:05:18;;;;;;;0.40;0.40;;;25.90;1.00;;;;;;5083541;28;20186;-82
2022/08/16 08:07:43;;;;;;;0.50;0.50;;;26.10;1.00;;;;;;5083623;28;20228;-82
2022/08/16 08:10:09;;;;;;;0.60;0.60;;;26.20;1.00;;;;;;5064323;28;20594;-81
2022/08/16 08:12:35;;;;;;;0.40;0.40;;;26.30;1.00;;;;;;5069339;28;20197;-80
2022/08/16 08:15:02;;;;;;;0.70;0.70;;;26.60;1.00;;;;;;5074484;28;20215;-83
2022/08/16 08:17:30;;;;;;;0.57;0.57;;;26.40;1.00;;;;;;5076169;28;20179;-80
2022/08/16 08:19:56;;;;;;;0.60;0.60;;;26.70;1.00;;;;;;5069045;28;20183;-82
2022/08/16 08:22:21;;;;;;;0.60;0.60;;;27.00;1.00;;;;;;5071010;28;20190;-80
2022/08/16 08:24:47;;;;;;;0.63;0.63;;;26.90;1.00;;;;;;5074159;28;20182;-81
2022/08/16 08:27:13;;;;;;;0.50;0.50;;;27.60;1.00;;;;;;5071146;28;20247;-82
2022/08/16 08:29:39;;;;;;;0.60;0.60;;;27.50;1.00;;;;;;5072307;28;20198;-81
2022/08/16 08:32:06;;;;;;;0.60;0.60;;;27.80;1.00;;;;;;5094834;22;20222;-79
2022/08/16 08:34:32;;;;;;;0.57;0.57;;;27.80;1.00;;;;;;5081285;28;20178;-79
2022/08/16 08:36:58;;;;;;;0.40;0.40;;;28.20;1.00;;;;;;5087353;28;20277;-79
2022/08/16 08:39:23;;;;;;;0.45;0.45;;;28.20;1.00;;;;;;5074215;28;20228;-80
2022/08/16 08:41:51;;;;;;;0.38;0.38;;;28.60;1.00;;;;;;5081875;28;20182;-80
2022/08/16 08:44:17;;;;;;;0.50;0.50;;;28.80;1.00;;;;;;5077772;28;20230;-81
2022/08/16 08:46:42;;;;;;;0.57;0.57;;;28.20;1.00;;;;;;5073974;28;20217;-77
2022/08/16 08:49:08;;;;;;;0.50;0.50;;;27.70;1.00;;;;;;5077089;28;20577;-77
2022/08/16 08:51:37;;;;;;;0.50;0.50;;;27.70;1.00;;;;;;5075953;28;20670;-79
2022/08/16 08:54:04;;;;;;;0.50;0.50;;;28.20;1.00;;;;;;5074704;28;20690;-77
2022/08/16 08:56:32;;;;;;;0.50;0.50;;;28.10;1.00;;;;;;5080919;28;20256;-78
2022/08/16 08:58:57;;;;;;;0.50;0.50;;;28.00;1.00;;;;;;5067572;28;20382;-77
2022/08/16 09:01:28;;;;;;;0.50;0.50;;;27.50;1.00;;;;;;5088235;28;20193;-76
2022/08/16 09:03:53;;;;;;;0.50;0.50;;;27.10;1.00;;;;;;5083497;28;20273;-77
2022/08/16 09:06:19;;;;;;;0.60;0.60;;;26.40;1.00;;;;;;5077968;28;20639;-77
2022/08/16 09:08:45;;;;;;;0.60;0.60;;;26.20;1.00;;;;;;5071236;28;20178;-77
2022/08/16 09:11:10;;;;;;;0.50;0.50;;;26.00;1.00;;;;;;5079687;28;20181;-77
2022/08/16 09:13:36;;;;;;;0.30;0.30;;;25.50;1.00;;;;;;5089249;28;20628;-77
2022/08/16 09:16:03;;;;;;;0.30;0.30;;;25.00;1.00;;;;;;5075055;28;20210;-77
2022/08/16 09:18:29;;;;;;;0.57;0.57;;;24.90;1.00;;;;;;5076764;28;20682;-77
2022/08/16 09:20:55;;;;;;;0.30;0.30;;;24.80;1.00;;;;;;5081272;28;20177;-76
2022/08/16 09:23:22;;;;;;;0.40;0.40;;;24.60;1.00;;;;;;5086792;28;20192;-78
2022/08/16 09:25:48;;;;;;;0.40;0.40;;;24.80;1.00;;;;;;5083817;28;20190;-77
2022/08/16 09:28:14;;;;;;;0.30;0.30;;;25.40;1.00;;;;;;5090586;28;20211;-77
2022/08/16 09:30:40;;;;;;;0.40;0.40;;;25.80;1.00;;;;;;5080418;28;20659;-78
2022/08/16 09:33:06;;;;;;;0.53;0.53;;;25.80;1.00;;;;;;5088350;28;20221;-77
2022/08/16 09:35:31;;;;;;;0.57;0.57;;;26.10;1.00;;;;;;5075319;28;20214;-77
2022/08/16 09:37:57;;;;;;;0.50;0.50;;;26.50;1.00;;;;;;5081999;28;20182;-77
2022/08/16 09:40:23;;;;;;;0.40;0.40;;;26.50;1.00;;;;;;5092104;28;20209;-78
2022/08/16 09:42:48;;;;;;;0.50;0.50;;;26.00;1.00;;;;;;5078356;28;20205;-77
2022/08/16 09:45:15;;;;;;;0.50;0.50;;;26.00;1.00;;;;;;5073019;28;20605;-77
2022/08/16 09:47:41;;;;;;;0.50;0.50;;;25.80;1.00;;;;;;5072416;28;20225;-77
2022/08/16 09:50:11;;;;;;;0.50;0.50;;;25.80;1.00;;;;;;5080728;28;20186;-77
2022/08/16 09:52:37;;;;;;;0.50;0.50;;;25.70;1.00;;;;;;5082055;28;20271;-77
2022/08/16 09:55:09;;;;;;;0.50;0.50;;;25.50;1.00;;;;;;5073060;28;20217;-79
2022/08/16 09:57:40;;;;;;;0.43;0.43;;;25.60;1.00;;;;;;5056951;28;20174;-78
2022/08/16 10:00:10;;;;;;;0.43;0.43;;;25.70;1.00;;;;;;5080902;28;20192;-77
2022/08/16 10:02:36;;;;;;;0.60;0.60;;;25.70;1.00;;;;;;5079398;28;20198;-77
2022/08/16 10:05:02;;;;;;;0.50;0.50;;;25.50;1.00;;;;;;5078953;28;20186;-77
2022/08/16 10:07:30;;;;;;;0.40;0.40;;;25.20;1.00;;;;;;5071724;28;20709;-77
2022/08/16 10:09:56;;;;;;;0.50;0.50;;;25.20;1.00;;;;;;5085147;28;20178;-78
2022/08/16 10:15:13;;;;;;;0.40;0.40;;;25.00;1.00;;;;;;5084808;28;20251;-78
2022/08/16 10:17:41;;;;;;;0.50;0.50;;;24.80;1.00;;;;;;5065755;28;20175;-77
2022/08/16 10:20:13;;;;;;;0.40;0.40;;;24.80;1.00;;;;;;5069806;28;20668;-77
2022/08/16 10:22:39;;;;;;;0.43;0.43;;;24.80;1.00;;;;;;5071890;28;20198;-77
2022/08/16 10:25:06;;;;;;;0.40;0.40;;;24.90;1.00;;;;;;5079145;28;20177;-78
2022/08/16 10:27:34;;;;;;;0.40;0.40;;;24.90;1.00;;;;;;5092252;28;20185;-77
2022/08/16 10:30:00;;;;;;;0.50;0.50;;;24.80;1.00;;;;;;5074386;28;20639;-79
2022/08/16 10:32:25;;;;;;;0.40;0.40;;;25.30;1.00;;;;;;5075019;28;20255;-77
2022/08/16 10:34:51;;;;;;;0.53;0.53;;;25.20;1.00;;;;;;5084972;28;20206;-78
2022/08/16 10:37:16;;;;;;;0.50;0.50;;;26.30;1.00;;;;;;5086928;28;20192;-77
2022/08/16 10:39:42;;;;;;;0.50;0.50;;;26.80;1.00;;;;;;5081684;28;20182;-78
2022/08/16 10:42:09;;;;;;;0.50;0.50;;;26.70;1.00;;;;;;5090701;28;20260;-78
2022/08/16 10:44:35;;;;;;;0.50;0.50;;;26.90;1.00;;;;;;5083389;28;20179;-79
2022/08/16 10:47:00;;;;;;;0.60;0.60;;;26.70;1.00;;;;;;5083600;28;20257;-78
2022/08/16 10:49:26;;;;;;;0.63;0.63;;;26.70;1.00;;;;;;5071068;28;20498;-77
2022/08/16 10:51:54;;;;;;;0.50;0.50;;;27.20;1.00;;;;;;5085592;28;20233;-77
2022/08/16 10:54:20;;;;;;;0.67;0.67;;;27.00;1.00;;;;;;5089728;28;20193;-78
2022/08/16 10:56:46;;;;;;;0.57;0.57;;;26.90;1.00;;;;;;5083531;28;20224;-77
2022/08/16 10:59:11;;;;;;;0.47;0.47;;;26.80;1.00;;;;;;5069976;28;20189;-78
2022/08/16 11:01:37;;;;;;;0.50;0.50;;;26.70;1.00;;;;;;5076425;28;20190;-78
2022/08/16 11:04:02;;;;;;;0.50;0.50;;;26.90;1.00;;;;;;5073437;28;20213;-78
2022/08/16 11:06:28;;;;;;;0.60;0.60;;;27.20;1.00;;;;;;5078862;28;20182;-79
2022/08/16 11:08:55;;;;;;;0.43;0.43;;;27.50;1.00;;;;;;5076258;28;20198;-80
2022/08/16 11:11:21;;;;;;;0.53;0.53;;;27.70;1.00;;;;;;5074509;28;20237;-78
2022/08/16 11:13:47;;;;;;;0.77;0.77;;;28.00;1.00;;;;;;5080989;28;20214;-79
2022/08/16 11:16:13;;;;;;;0.50;0.50;;;27.30;1.00;;;;;;5076822;28;20309;-78
2022/08/16 11:18:39;;;;;;;0.70;0.70;;;26.90;1.00;;;;;;5084251;28;20182;-77
2022/08/16 11:21:05;;;;;;;0.50;0.50;;;27.10;1.00;;;;;;5075234;28;20845;-77
2022/08/16 11:23:30;;;;;;;0.60;0.60;;;28.40;1.00;;;;;;5073476;28;20198;-78
2022/08/16 11:25:56;;;;;;;0.60;0.60;;;29.30;1.00;;;;;;5074512;28;20186;-78
2022/08/16 11:28:22;;;;;;;0.53;0.53;;;29.60;1.00;;;;;;5078866;28;20197;-78
2022/08/16 11:30:48;;;;;;;0.80;0.80;;;29.90;1.00;;;;;;5081813;28;20203;-79
2022/08/16 11:33:14;;;;;;;0.50;0.50;;;30.20;1.00;;;;;;5074404;28;20215;-78
2022/08/16 11:35:41;;;;;;;0.63;0.63;;;30.50;1.00;;;;;;5091442;28;20300;-78
2022/08/16 11:38:19;;;;;;;0.63;0.63;;;30.90;1.00;;;;;;5094350;28;20197;-78
2022/08/16 11:40:56;;;;;;;0.67;0.67;;;30.90;1.00;;;;;;5091981;28;20219;-78
2022/08/16 11:43:25;;;;;;;0.60;0.60;;;31.00;1.00;;;;;;5085339;28;20299;-78
2022/08/16 11:45:51;;;;;;;0.57;0.57;;;30.60;1.00;;;;;;5081702;28;20253;-77
2022/08/16 11:48:18;;;;;;;0.60;0.60;;;30.10;1.00;;;;;;5081187;28;20235;-77
2022/08/16 11:50:45;;;;;;;0.50;0.50;;;30.50;1.00;;;;;;5074001;28;20223;-77
2022/08/16 11:53:11;;;;;;;0.60;0.60;;;30.30;1.00;;;;;;5093653;28;20206;-76
2022/08/16 11:55:39;;;;;;;0.70;0.70;;;30.50;1.00;;;;;;5076229;28;20565;-77
2022/08/16 11:58:08;;;;;;;0.63;0.63;;;30.40;1.00;;;;;;5091842;28;20539;-78
2022/08/16 12:00:36;;;;;;;0.67;0.67;;;30.50;1.00;;;;;;5063851;28;20182;-77
2022/08/16 12:03:01;;;;;;;0.50;0.50;;;30.70;1.00;;;;;;5077322;28;20206;-79
2022/08/16 12:05:28;;;;;;;0.50;0.50;;;30.00;1.00;;;;;;5079129;28;20181;-77
2022/08/16 12:07:54;;;;;;;0.60;0.60;;;30.40;1.00;;;;;;5077380;28;20182;-79
2022/08/16 12:10:22;;;;;;;0.70;0.70;;;30.90;1.00;;;;;;5087490;28;20222;-77
2022/08/16 12:12:48;;;;;;;0.47;0.47;;;31.00;1.00;;;;;;5072636;28;20203;-77
2022/08/16 12:15:14;;;;;;;0.63;0.63;;;30.90;1.00;;;;;;5060224;28;20226;-77
2022/08/16 12:17:42;;;;;;;0.70;0.70;;;31.10;1.00;;;;;;5066093;28;20221;-77
2022/08/16 12:20:11;;;;;;;0.65;0.65;;;31.60;1.00;;;;;;5059986;28;20182;-77
2022/08/16 12:22:37;;;;;;;0.30;0.30;;;32.20;1.00;;;;;;5073415;28;20202;-75
2022/08/16 12:25:09;;;;;;;0.50;0.50;;;32.00;1.00;;;;;;5062423;28;20194;-77
2022/08/16 12:27:35;;;;;;;0.30;0.30;;;31.90;1.00;;;;;;5068417;28;20185;-76
2022/08/16 12:30:02;;;;;;;0.60;0.60;;;31.60;1.00;;;;;;5062696;28;20276;-78
2022/08/16 12:32:28;;;;;;;0.50;0.50;;;31.80;1.00;;;;;;5067691;28;20233;-78
2022/08/16 12:34:54;;;;;;;0.40;0.40;;;31.60;1.00;;;;;;5065313;28;20659;-77
2022/08/16 12:37:21;;;;;;;0.60;0.60;;;31.50;1.00;;;;;;5063076;28;20236;-78
2022/08/16 12:39:46;;;;;;;0.50;0.50;;;31.40;1.00;;;;;;5073394;28;20182;-77
2022/08/16 12:42:12;;;;;;;0.40;0.40;;;31.90;1.00;;;;;;5074131;28;20540;-78
2022/08/16 12:44:40;;;;;;;0.10;0.10;;;31.70;1.00;;;;;;5090160;28;20412;-76
2022/08/16 12:49:51;;;;;;;0.50;0.50;;;31.40;1.00;;;;;;5083554;28;20192;-77
2022/08/16 12:52:17;;;;;;;0.60;0.60;;;31.60;1.00;;;;;;5079538;28;20178;-78